sensor_id;sensor_type;location;lat;lon;timestamp;temperature;humidity
24252;DHT22;12380;51.118;4.176;2023-12-14T00:02:21;9.70;99.90
24252;DHT22;12380;51.118;4.176;2023-12-14T00:04:46;9.60;99.90
24252;DHT22;12380;51.118;4.176;2023-12-14T00:07:12;9.60;99.90
24252;DHT22;12380;51.118;4.176;2023-12-14T00:09:40;9.70;99.90
24252;DHT22;12380;51.118;4.176;2023-12-14T00:12:06;9.80;99.90
24252;DHT22;12380;51.118;4.176;2023-12-14T00:14:31;9.80;99.90
24252;DHT22;12380;51.118;4.176;2023-12-14T00:16:57;9.70;99.90
24252;DHT22;12380;51.118;4.176;2023-12-14T00:19:24;9.70;99.90
24252;DHT22;12380;51.118;4.176;2023-12-14T00:21:50;9.50;99.90
24252;DHT22;12380;51.118;4.176;2023-12-14T00:24:15;9.40;99.90
24252;DHT22;12380;51.118;4.176;2023-12-14T00:26:41;9.70;99.90
24252;DHT22;12380;51.118;4.176;2023-12-14T00:29:07;9.70;99.90
24252;DHT22;12380;51.118;4.176;2023-12-14T00:31:32;9.70;99.90
24252;DHT22;12380;51.118;4.176;2023-12-14T00:33:58;9.70;99.90
24252;DHT22;12380;51.118;4.176;2023-12-14T00:36:24;9.60;99.90
24252;DHT22;12380;51.118;4.176;2023-12-14T00:38:50;9.60;99.90
24252;DHT22;12380;51.118;4.176;2023-12-14T00:41:15;9.60;99.90
24252;DHT22;12380;51.118;4.176;2023-12-14T00:43:41;9.70;99.90
24252;DHT22;12380;51.118;4.176;2023-12-14T00:46:09;9.60;99.90
24252;DHT22;12380;51.118;4.176;2023-12-14T00:48:35;9.70;99.90
24252;DHT22;12380;51.118;4.176;2023-12-14T00:51:01;9.70;99.90
24252;DHT22;12380;51.118;4.176;2023-12-14T00:53:26;9.80;99.90
24252;DHT22;12380;51.118;4.176;2023-12-14T00:55:52;9.60;99.90
24252;DHT22;12380;51.118;4.176;2023-12-14T00:58:17;9.70;99.90
24252;DHT22;12380;51.118;4.176;2023-12-14T01:00:43;9.60;99.90
24252;DHT22;12380;51.118;4.176;2023-12-14T01:03:09;9.60;99.90
24252;DHT22;12380;51.118;4.176;2023-12-14T01:05:34;9.60;99.90
24252;DHT22;12380;51.118;4.176;2023-12-14T01:08:00;9.60;99.90
24252;DHT22;12380;51.118;4.176;2023-12-14T01:10:26;9.50;99.90
24252;DHT22;12380;51.118;4.176;2023-12-14T01:12:51;9.50;99.90
24252;DHT22;12380;51.118;4.176;2023-12-14T01:15:17;9.50;99.90
24252;DHT22;12380;51.118;4.176;2023-12-14T01:17:43;9.60;99.90
24252;DHT22;12380;51.118;4.176;2023-12-14T01:20:09;9.60;99.90
24252;DHT22;12380;51.118;4.176;2023-12-14T01:22:37;9.60;99.90
24252;DHT22;12380;51.118;4.176;2023-12-14T01:25:05;9.80;99.90
24252;DHT22;12380;51.118;4.176;2023-12-14T01:27:31;9.80;99.90
24252;DHT22;12380;51.118;4.176;2023-12-14T01:29:59;9.60;99.90
24252;DHT22;12380;51.118;4.176;2023-12-14T01:32:24;9.50;99.90
24252;DHT22;12380;51.118;4.176;2023-12-14T01:34:50;9.40;99.90
24252;DHT22;12380;51.118;4.176;2023-12-14T01:37:15;9.50;99.90
24252;DHT22;12380;51.118;4.176;2023-12-14T01:39:41;9.60;99.90
24252;DHT22;12380;51.118;4.176;2023-12-14T01:42:07;9.30;99.90
24252;DHT22;12380;51.118;4.176;2023-12-14T01:44:33;9.30;99.90
24252;DHT22;12380;51.118;4.176;2023-12-14T01:46:59;9.20;99.90
24252;DHT22;12380;51.118;4.176;2023-12-14T01:49:24;9.10;99.90
24252;DHT22;12380;51.118;4.176;2023-12-14T01:51:50;9.20;99.90
24252;DHT22;12380;51.118;4.176;2023-12-14T01:54:15;9.20;99.90
24252;DHT22;12380;51.118;4.176;2023-12-14T01:56:43;9.00;99.90
24252;DHT22;12380;51.118;4.176;2023-12-14T01:59:09;9.20;99.90
24252;DHT22;12380;51.118;4.176;2023-12-14T02:01:42;9.00;99.90
24252;DHT22;12380;51.118;4.176;2023-12-14T02:04:08;8.90;99.90
24252;DHT22;12380;51.118;4.176;2023-12-14T02:06:35;8.80;99.90
24252;DHT22;12380;51.118;4.176;2023-12-14T02:09:01;8.80;99.90
24252;DHT22;12380;51.118;4.176;2023-12-14T02:11:29;8.90;99.90
24252;DHT22;12380;51.118;4.176;2023-12-14T02:13:55;8.90;99.90
24252;DHT22;12380;51.118;4.176;2023-12-14T02:16:20;9.30;99.90
24252;DHT22;12380;51.118;4.176;2023-12-14T02:18:46;9.10;99.90
24252;DHT22;12380;51.118;4.176;2023-12-14T02:21:12;8.80;99.90
24252;DHT22;12380;51.118;4.176;2023-12-14T02:23:47;8.40;99.90
24252;DHT22;12380;51.118;4.176;2023-12-14T02:26:13;8.40;99.90
24252;DHT22;12380;51.118;4.176;2023-12-14T02:28:39;8.60;99.90
24252;DHT22;12380;51.118;4.176;2023-12-14T02:31:06;8.40;99.90
24252;DHT22;12380;51.118;4.176;2023-12-14T02:33:31;8.60;99.90
24252;DHT22;12380;51.118;4.176;2023-12-14T02:35:57;8.40;99.90
24252;DHT22;12380;51.118;4.176;2023-12-14T02:38:25;8.40;99.90
24252;DHT22;12380;51.118;4.176;2023-12-14T02:40:51;8.60;99.90
24252;DHT22;12380;51.118;4.176;2023-12-14T02:43:20;8.40;99.90
24252;DHT22;12380;51.118;4.176;2023-12-14T02:45:46;8.50;99.90
24252;DHT22;12380;51.118;4.176;2023-12-14T02:48:12;8.40;99.90
24252;DHT22;12380;51.118;4.176;2023-12-14T02:50:42;8.40;99.90
24252;DHT22;12380;51.118;4.176;2023-12-14T02:53:08;8.40;99.90
24252;DHT22;12380;51.118;4.176;2023-12-14T02:55:34;8.70;99.90
24252;DHT22;12380;51.118;4.176;2023-12-14T02:57:59;8.60;99.90
24252;DHT22;12380;51.118;4.176;2023-12-14T03:00:27;8.50;99.90
24252;DHT22;12380;51.118;4.176;2023-12-14T03:02:53;8.60;99.90
24252;DHT22;12380;51.118;4.176;2023-12-14T03:05:18;8.60;99.90
24252;DHT22;12380;51.118;4.176;2023-12-14T03:07:44;8.30;99.90
24252;DHT22;12380;51.118;4.176;2023-12-14T03:10:10;8.10;99.90
24252;DHT22;12380;51.118;4.176;2023-12-14T03:12:35;7.90;99.90
24252;DHT22;12380;51.118;4.176;2023-12-14T03:15:01;8.20;99.90
24252;DHT22;12380;51.118;4.176;2023-12-14T03:17:27;8.00;99.90
24252;DHT22;12380;51.118;4.176;2023-12-14T03:19:54;7.90;99.90
24252;DHT22;12380;51.118;4.176;2023-12-14T03:22:22;8.20;99.90
24252;DHT22;12380;51.118;4.176;2023-12-14T03:24:47;8.10;99.90
24252;DHT22;12380;51.118;4.176;2023-12-14T03:27:13;8.00;99.90
24252;DHT22;12380;51.118;4.176;2023-12-14T03:29:39;7.90;99.90
24252;DHT22;12380;51.118;4.176;2023-12-14T03:32:04;7.80;99.90
24252;DHT22;12380;51.118;4.176;2023-12-14T03:34:30;8.00;99.90
24252;DHT22;12380;51.118;4.176;2023-12-14T03:36:56;8.10;99.90
24252;DHT22;12380;51.118;4.176;2023-12-14T03:39:21;7.90;99.90
24252;DHT22;12380;51.118;4.176;2023-12-14T03:41:47;8.10;99.90
24252;DHT22;12380;51.118;4.176;2023-12-14T03:44:13;7.90;99.90
24252;DHT22;12380;51.118;4.176;2023-12-14T03:46:39;7.90;99.90
24252;DHT22;12380;51.118;4.176;2023-12-14T03:49:05;7.90;99.90
24252;DHT22;12380;51.118;4.176;2023-12-14T03:51:31;7.90;99.90
24252;DHT22;12380;51.118;4.176;2023-12-14T03:53:57;7.70;99.90
24252;DHT22;12380;51.118;4.176;2023-12-14T03:56:23;7.70;99.90
24252;DHT22;12380;51.118;4.176;2023-12-14T03:58:49;7.90;99.90
24252;DHT22;12380;51.118;4.176;2023-12-14T04:01:18;7.80;99.90
24252;DHT22;12380;51.118;4.176;2023-12-14T04:03:45;7.80;99.90
24252;DHT22;12380;51.118;4.176;2023-12-14T04:06:12;7.60;99.90
24252;DHT22;12380;51.118;4.176;2023-12-14T04:08:37;7.60;99.90
24252;DHT22;12380;51.118;4.176;2023-12-14T04:11:04;7.60;99.90
24252;DHT22;12380;51.118;4.176;2023-12-14T04:13:30;7.50;99.90
24252;DHT22;12380;51.118;4.176;2023-12-14T04:15:56;7.60;99.90
24252;DHT22;12380;51.118;4.176;2023-12-14T04:18:22;7.60;99.90
24252;DHT22;12380;51.118;4.176;2023-12-14T04:20:48;7.60;99.90
24252;DHT22;12380;51.118;4.176;2023-12-14T04:23:14;7.60;99.90
24252;DHT22;12380;51.118;4.176;2023-12-14T04:25:39;7.60;99.90
24252;DHT22;12380;51.118;4.176;2023-12-14T04:28:07;7.50;99.90
24252;DHT22;12380;51.118;4.176;2023-12-14T04:30:36;7.60;99.90
24252;DHT22;12380;51.118;4.176;2023-12-14T04:33:02;7.80;99.90
24252;DHT22;12380;51.118;4.176;2023-12-14T04:35:27;7.70;99.90
24252;DHT22;12380;51.118;4.176;2023-12-14T04:37:53;7.50;99.90
24252;DHT22;12380;51.118;4.176;2023-12-14T04:40:19;7.60;99.90
24252;DHT22;12380;51.118;4.176;2023-12-14T04:42:44;7.40;99.90
24252;DHT22;12380;51.118;4.176;2023-12-14T04:45:10;7.30;99.90
24252;DHT22;12380;51.118;4.176;2023-12-14T04:47:36;7.30;99.90
24252;DHT22;12380;51.118;4.176;2023-12-14T04:50:02;7.30;99.90
24252;DHT22;12380;51.118;4.176;2023-12-14T04:52:31;7.10;99.90
24252;DHT22;12380;51.118;4.176;2023-12-14T04:54:56;7.30;99.90
24252;DHT22;12380;51.118;4.176;2023-12-14T04:57:22;7.40;99.90
24252;DHT22;12380;51.118;4.176;2023-12-14T04:59:50;7.40;99.90
24252;DHT22;12380;51.118;4.176;2023-12-14T05:02:18;7.20;99.90
24252;DHT22;12380;51.118;4.176;2023-12-14T05:04:44;7.40;99.90
24252;DHT22;12380;51.118;4.176;2023-12-14T05:07:09;7.20;99.90
24252;DHT22;12380;51.118;4.176;2023-12-14T05:09:35;7.20;99.90
24252;DHT22;12380;51.118;4.176;2023-12-14T05:12:01;7.10;99.90
24252;DHT22;12380;51.118;4.176;2023-12-14T05:14:26;7.00;99.90
24252;DHT22;12380;51.118;4.176;2023-12-14T05:16:54;7.10;99.90
24252;DHT22;12380;51.118;4.176;2023-12-14T05:19:20;7.00;99.90
24252;DHT22;12380;51.118;4.176;2023-12-14T05:21:45;7.00;99.90
24252;DHT22;12380;51.118;4.176;2023-12-14T05:24:11;7.10;99.90
24252;DHT22;12380;51.118;4.176;2023-12-14T05:26:41;7.10;99.90
24252;DHT22;12380;51.118;4.176;2023-12-14T05:29:07;7.40;99.90
24252;DHT22;12380;51.118;4.176;2023-12-14T05:31:32;7.30;99.90
24252;DHT22;12380;51.118;4.176;2023-12-14T05:33:58;7.10;99.90
24252;DHT22;12380;51.118;4.176;2023-12-14T05:36:24;7.10;99.90
24252;DHT22;12380;51.118;4.176;2023-12-14T05:38:49;7.00;99.90
24252;DHT22;12380;51.118;4.176;2023-12-14T05:41:15;7.00;99.90
24252;DHT22;12380;51.118;4.176;2023-12-14T05:43:41;7.10;99.90
24252;DHT22;12380;51.118;4.176;2023-12-14T05:46:06;7.20;99.90
24252;DHT22;12380;51.118;4.176;2023-12-14T05:48:32;7.20;99.90
24252;DHT22;12380;51.118;4.176;2023-12-14T05:51:00;7.20;99.90
24252;DHT22;12380;51.118;4.176;2023-12-14T05:53:28;7.10;99.90
24252;DHT22;12380;51.118;4.176;2023-12-14T05:55:57;7.10;99.90
24252;DHT22;12380;51.118;4.176;2023-12-14T05:58:22;7.00;99.90
24252;DHT22;12380;51.118;4.176;2023-12-14T06:00:48;7.10;99.90
24252;DHT22;12380;51.118;4.176;2023-12-14T06:03:16;7.40;99.90
24252;DHT22;12380;51.118;4.176;2023-12-14T06:05:42;7.20;99.90
24252;DHT22;12380;51.118;4.176;2023-12-14T06:08:07;7.20;99.90
24252;DHT22;12380;51.118;4.176;2023-12-14T06:10:33;7.40;99.90
24252;DHT22;12380;51.118;4.176;2023-12-14T06:12:59;7.20;99.90
24252;DHT22;12380;51.118;4.176;2023-12-14T06:15:24;7.00;99.90
24252;DHT22;12380;51.118;4.176;2023-12-14T06:17:52;7.00;99.90
24252;DHT22;12380;51.118;4.176;2023-12-14T06:20:18;7.10;99.90
24252;DHT22;12380;51.118;4.176;2023-12-14T06:22:46;7.40;99.90
24252;DHT22;12380;51.118;4.176;2023-12-14T06:25:12;7.30;99.90
24252;DHT22;12380;51.118;4.176;2023-12-14T06:27:37;7.10;99.90
24252;DHT22;12380;51.118;4.176;2023-12-14T06:30:05;6.90;99.90
24252;DHT22;12380;51.118;4.176;2023-12-14T06:32:31;7.00;99.90
24252;DHT22;12380;51.118;4.176;2023-12-14T06:34:57;6.80;99.90
24252;DHT22;12380;51.118;4.176;2023-12-14T06:37:22;6.70;99.90
24252;DHT22;12380;51.118;4.176;2023-12-14T06:39:48;6.80;99.90
24252;DHT22;12380;51.118;4.176;2023-12-14T06:42:14;6.80;99.90
24252;DHT22;12380;51.118;4.176;2023-12-14T06:44:39;7.10;99.90
24252;DHT22;12380;51.118;4.176;2023-12-14T06:47:05;6.70;99.90
24252;DHT22;12380;51.118;4.176;2023-12-14T06:49:31;6.50;99.90
24252;DHT22;12380;51.118;4.176;2023-12-14T06:51:57;6.20;99.90
24252;DHT22;12380;51.118;4.176;2023-12-14T06:54:23;6.30;99.90
24252;DHT22;12380;51.118;4.176;2023-12-14T06:56:49;6.20;99.90
24252;DHT22;12380;51.118;4.176;2023-12-14T06:59:14;6.00;99.90
24252;DHT22;12380;51.118;4.176;2023-12-14T07:01:41;5.70;99.90
24252;DHT22;12380;51.118;4.176;2023-12-14T07:04:08;5.60;99.90
24252;DHT22;12380;51.118;4.176;2023-12-14T07:06:34;5.70;99.90
24252;DHT22;12380;51.118;4.176;2023-12-14T07:09:01;5.60;99.90
24252;DHT22;12380;51.118;4.176;2023-12-14T07:11:27;5.70;99.90
24252;DHT22;12380;51.118;4.176;2023-12-14T07:13:55;5.80;99.90
24252;DHT22;12380;51.118;4.176;2023-12-14T07:16:20;5.90;99.90
24252;DHT22;12380;51.118;4.176;2023-12-14T07:18:46;5.90;99.90
24252;DHT22;12380;51.118;4.176;2023-12-14T07:21:12;6.00;99.90
24252;DHT22;12380;51.118;4.176;2023-12-14T07:23:41;6.10;99.90
24252;DHT22;12380;51.118;4.176;2023-12-14T07:26:09;6.10;99.90
24252;DHT22;12380;51.118;4.176;2023-12-14T07:28:35;6.20;99.90
24252;DHT22;12380;51.118;4.176;2023-12-14T07:31:02;6.20;99.90
24252;DHT22;12380;51.118;4.176;2023-12-14T07:33:28;6.30;99.90
24252;DHT22;12380;51.118;4.176;2023-12-14T07:35:54;6.30;99.90
24252;DHT22;12380;51.118;4.176;2023-12-14T07:38:20;6.40;99.90
24252;DHT22;12380;51.118;4.176;2023-12-14T07:40:45;6.40;99.90
24252;DHT22;12380;51.118;4.176;2023-12-14T07:43:12;6.40;99.90
24252;DHT22;12380;51.118;4.176;2023-12-14T07:45:37;6.40;99.90
24252;DHT22;12380;51.118;4.176;2023-12-14T07:48:03;6.30;99.90
24252;DHT22;12380;51.118;4.176;2023-12-14T07:50:32;6.40;99.90
24252;DHT22;12380;51.118;4.176;2023-12-14T07:53:00;6.50;99.90
24252;DHT22;12380;51.118;4.176;2023-12-14T07:55:26;6.60;99.90
24252;DHT22;12380;51.118;4.176;2023-12-14T07:57:54;6.40;99.90
24252;DHT22;12380;51.118;4.176;2023-12-14T08:00:20;6.50;99.90
24252;DHT22;12380;51.118;4.176;2023-12-14T08:02:45;6.50;99.90
24252;DHT22;12380;51.118;4.176;2023-12-14T08:05:11;6.40;99.90
24252;DHT22;12380;51.118;4.176;2023-12-14T08:07:37;6.20;99.90
24252;DHT22;12380;51.118;4.176;2023-12-14T08:10:03;6.10;99.90
24252;DHT22;12380;51.118;4.176;2023-12-14T08:12:28;6.00;99.90
24252;DHT22;12380;51.118;4.176;2023-12-14T08:14:54;5.90;99.90
24252;DHT22;12380;51.118;4.176;2023-12-14T08:17:20;5.90;99.90
24252;DHT22;12380;51.118;4.176;2023-12-14T08:19:46;5.80;99.90
24252;DHT22;12380;51.118;4.176;2023-12-14T08:22:14;5.80;99.90
24252;DHT22;12380;51.118;4.176;2023-12-14T08:24:43;5.80;99.90
24252;DHT22;12380;51.118;4.176;2023-12-14T08:27:09;5.90;99.90
24252;DHT22;12380;51.118;4.176;2023-12-14T08:29:34;5.90;99.90
24252;DHT22;12380;51.118;4.176;2023-12-14T08:32:00;6.20;99.90
24252;DHT22;12380;51.118;4.176;2023-12-14T08:34:27;6.50;99.90
24252;DHT22;12380;51.118;4.176;2023-12-14T08:36:53;6.60;99.90
24252;DHT22;12380;51.118;4.176;2023-12-14T08:39:22;6.60;99.90
24252;DHT22;12380;51.118;4.176;2023-12-14T08:41:50;6.90;99.90
24252;DHT22;12380;51.118;4.176;2023-12-14T08:44:19;6.90;99.90
24252;DHT22;12380;51.118;4.176;2023-12-14T08:46:46;6.90;99.90
24252;DHT22;12380;51.118;4.176;2023-12-14T08:49:13;7.00;99.90
24252;DHT22;12380;51.118;4.176;2023-12-14T08:51:39;7.00;99.90
24252;DHT22;12380;51.118;4.176;2023-12-14T08:54:05;7.10;99.90
24252;DHT22;12380;51.118;4.176;2023-12-14T08:56:31;7.10;99.90
24252;DHT22;12380;51.118;4.176;2023-12-14T08:58:57;7.00;99.90
24252;DHT22;12380;51.118;4.176;2023-12-14T09:01:24;7.10;99.90
24252;DHT22;12380;51.118;4.176;2023-12-14T09:03:50;7.20;99.90
24252;DHT22;12380;51.118;4.176;2023-12-14T09:06:17;7.30;99.90
24252;DHT22;12380;51.118;4.176;2023-12-14T09:08:46;7.20;99.90
24252;DHT22;12380;51.118;4.176;2023-12-14T09:11:12;7.40;99.90
24252;DHT22;12380;51.118;4.176;2023-12-14T09:13:38;7.40;99.90
24252;DHT22;12380;51.118;4.176;2023-12-14T09:16:07;7.50;99.90
24252;DHT22;12380;51.118;4.176;2023-12-14T09:18:33;7.50;99.90
24252;DHT22;12380;51.118;4.176;2023-12-14T09:20:59;7.60;99.90
24252;DHT22;12380;51.118;4.176;2023-12-14T09:23:27;7.50;99.90
24252;DHT22;12380;51.118;4.176;2023-12-14T09:25:55;7.30;99.90
24252;DHT22;12380;51.118;4.176;2023-12-14T09:28:21;7.40;99.90
24252;DHT22;12380;51.118;4.176;2023-12-14T09:30:47;7.50;99.90
24252;DHT22;12380;51.118;4.176;2023-12-14T09:33:14;7.50;99.90
24252;DHT22;12380;51.118;4.176;2023-12-14T09:35:40;7.60;99.90
24252;DHT22;12380;51.118;4.176;2023-12-14T09:38:07;7.60;99.90
24252;DHT22;12380;51.118;4.176;2023-12-14T09:40:33;7.60;99.90
24252;DHT22;12380;51.118;4.176;2023-12-14T09:43:00;7.60;99.90
24252;DHT22;12380;51.118;4.176;2023-12-14T09:45:29;7.60;99.90
24252;DHT22;12380;51.118;4.176;2023-12-14T09:48:02;7.50;99.90
24252;DHT22;12380;51.118;4.176;2023-12-14T09:50:28;7.60;99.90
24252;DHT22;12380;51.118;4.176;2023-12-14T09:52:54;7.60;99.90
24252;DHT22;12380;51.118;4.176;2023-12-14T09:55:19;7.70;99.90
24252;DHT22;12380;51.118;4.176;2023-12-14T09:57:45;7.70;99.90
24252;DHT22;12380;51.118;4.176;2023-12-14T10:00:11;7.70;99.90
24252;DHT22;12380;51.118;4.176;2023-12-14T10:02:42;7.80;99.90
24252;DHT22;12380;51.118;4.176;2023-12-14T10:05:11;7.90;99.90
24252;DHT22;12380;51.118;4.176;2023-12-14T10:07:46;8.30;99.90
24252;DHT22;12380;51.118;4.176;2023-12-14T10:10:14;8.60;99.90
24252;DHT22;12380;51.118;4.176;2023-12-14T10:12:53;8.50;99.90
24252;DHT22;12380;51.118;4.176;2023-12-14T10:15:19;8.50;99.90
24252;DHT22;12380;51.118;4.176;2023-12-14T10:17:45;8.50;99.90
24252;DHT22;12380;51.118;4.176;2023-12-14T10:20:22;8.50;99.90
24252;DHT22;12380;51.118;4.176;2023-12-14T10:22:49;8.50;99.90
24252;DHT22;12380;51.118;4.176;2023-12-14T10:25:18;8.50;99.90
24252;DHT22;12380;51.118;4.176;2023-12-14T10:27:51;8.60;99.90
24252;DHT22;12380;51.118;4.176;2023-12-14T10:30:22;8.60;99.90
24252;DHT22;12380;51.118;4.176;2023-12-14T10:32:50;8.60;99.90
24252;DHT22;12380;51.118;4.176;2023-12-14T10:35:16;8.60;99.90
24252;DHT22;12380;51.118;4.176;2023-12-14T10:37:44;8.80;99.90
24252;DHT22;12380;51.118;4.176;2023-12-14T10:40:13;8.70;99.90
24252;DHT22;12380;51.118;4.176;2023-12-14T10:42:42;8.80;99.90
24252;DHT22;12380;51.118;4.176;2023-12-14T10:45:11;8.80;99.90
24252;DHT22;12380;51.118;4.176;2023-12-14T10:47:39;8.70;99.90
24252;DHT22;12380;51.118;4.176;2023-12-14T10:50:10;8.80;99.90
24252;DHT22;12380;51.118;4.176;2023-12-14T10:52:40;8.70;99.90
24252;DHT22;12380;51.118;4.176;2023-12-14T10:55:33;8.50;99.90
24252;DHT22;12380;51.118;4.176;2023-12-14T10:58:03;8.50;99.90
24252;DHT22;12380;51.118;4.176;2023-12-14T11:00:30;8.50;99.90
24252;DHT22;12380;51.118;4.176;2023-12-14T11:02:58;8.60;99.90
24252;DHT22;12380;51.118;4.176;2023-12-14T11:05:27;8.60;99.90
24252;DHT22;12380;51.118;4.176;2023-12-14T11:07:59;8.70;99.90
24252;DHT22;12380;51.118;4.176;2023-12-14T11:10:40;8.60;99.90
24252;DHT22;12380;51.118;4.176;2023-12-14T11:13:11;8.60;99.90
24252;DHT22;12380;51.118;4.176;2023-12-14T11:15:49;8.60;99.90
24252;DHT22;12380;51.118;4.176;2023-12-14T11:23:12;8.40;99.90
24252;DHT22;12380;51.118;4.176;2023-12-14T11:25:48;8.30;99.90
24252;DHT22;12380;51.118;4.176;2023-12-14T11:28:17;8.20;99.90
24252;DHT22;12380;51.118;4.176;2023-12-14T11:30:46;8.20;99.90
24252;DHT22;12380;51.118;4.176;2023-12-14T11:33:13;8.30;99.90
24252;DHT22;12380;51.118;4.176;2023-12-14T11:35:39;8.30;99.90
24252;DHT22;12380;51.118;4.176;2023-12-14T11:38:05;8.30;99.90
24252;DHT22;12380;51.118;4.176;2023-12-14T11:40:38;8.20;99.90
24252;DHT22;12380;51.118;4.176;2023-12-14T11:43:07;8.10;99.90
24252;DHT22;12380;51.118;4.176;2023-12-14T11:45:43;8.00;99.90
24252;DHT22;12380;51.118;4.176;2023-12-14T11:48:10;8.00;99.90
24252;DHT22;12380;51.118;4.176;2023-12-14T11:50:41;8.00;99.90
24252;DHT22;12380;51.118;4.176;2023-12-14T11:53:11;7.90;99.90
24252;DHT22;12380;51.118;4.176;2023-12-14T11:55:39;7.80;99.90
24252;DHT22;12380;51.118;4.176;2023-12-14T11:58:05;8.00;99.90
24252;DHT22;12380;51.118;4.176;2023-12-14T12:00:32;8.10;99.90
24252;DHT22;12380;51.118;4.176;2023-12-14T12:05:40;8.20;99.90
24252;DHT22;12380;51.118;4.176;2023-12-14T12:08:06;8.30;99.90
24252;DHT22;12380;51.118;4.176;2023-12-14T12:10:36;8.30;99.90
24252;DHT22;12380;51.118;4.176;2023-12-14T12:13:03;8.20;99.90
24252;DHT22;12380;51.118;4.176;2023-12-14T12:15:34;8.20;99.90
24252;DHT22;12380;51.118;4.176;2023-12-14T12:18:09;8.30;99.90
24252;DHT22;12380;51.118;4.176;2023-12-14T12:20:34;8.40;99.90
24252;DHT22;12380;51.118;4.176;2023-12-14T12:23:01;8.30;99.90
24252;DHT22;12380;51.118;4.176;2023-12-14T12:25:27;8.30;99.90
24252;DHT22;12380;51.118;4.176;2023-12-14T12:28:00;8.30;99.90
24252;DHT22;12380;51.118;4.176;2023-12-14T12:30:27;8.40;99.90
24252;DHT22;12380;51.118;4.176;2023-12-14T12:32:55;8.40;99.90
24252;DHT22;12380;51.118;4.176;2023-12-14T12:35:22;8.40;99.90
24252;DHT22;12380;51.118;4.176;2023-12-14T12:37:49;8.60;99.90
24252;DHT22;12380;51.118;4.176;2023-12-14T12:40:20;8.60;99.90
24252;DHT22;12380;51.118;4.176;2023-12-14T12:42:48;8.60;99.90
24252;DHT22;12380;51.118;4.176;2023-12-14T12:45:17;8.60;99.90
24252;DHT22;12380;51.118;4.176;2023-12-14T12:47:43;8.80;99.90
24252;DHT22;12380;51.118;4.176;2023-12-14T12:50:09;8.70;99.90
24252;DHT22;12380;51.118;4.176;2023-12-14T12:52:35;8.80;99.90
24252;DHT22;12380;51.118;4.176;2023-12-14T12:55:01;8.80;99.90
24252;DHT22;12380;51.118;4.176;2023-12-14T12:57:27;8.70;99.90
24252;DHT22;12380;51.118;4.176;2023-12-14T12:59:55;8.90;99.90
24252;DHT22;12380;51.118;4.176;2023-12-14T13:02:21;8.80;99.90
24252;DHT22;12380;51.118;4.176;2023-12-14T13:04:47;8.90;99.90
24252;DHT22;12380;51.118;4.176;2023-12-14T13:07:12;8.90;99.90
24252;DHT22;12380;51.118;4.176;2023-12-14T13:09:41;8.80;99.90
24252;DHT22;12380;51.118;4.176;2023-12-14T13:12:06;9.00;99.90
24252;DHT22;12380;51.118;4.176;2023-12-14T13:14:35;9.10;99.90
24252;DHT22;12380;51.118;4.176;2023-12-14T13:17:00;9.10;99.90
24252;DHT22;12380;51.118;4.176;2023-12-14T13:19:26;9.20;99.90
24252;DHT22;12380;51.118;4.176;2023-12-14T13:21:52;9.10;99.90
24252;DHT22;12380;51.118;4.176;2023-12-14T13:24:18;9.10;99.90
24252;DHT22;12380;51.118;4.176;2023-12-14T13:26:44;9.20;99.90
24252;DHT22;12380;51.118;4.176;2023-12-14T13:29:12;9.20;99.90
24252;DHT22;12380;51.118;4.176;2023-12-14T13:31:38;9.10;99.90
24252;DHT22;12380;51.118;4.176;2023-12-14T13:34:06;9.30;99.90
24252;DHT22;12380;51.118;4.176;2023-12-14T13:36:32;9.40;99.90
24252;DHT22;12380;51.118;4.176;2023-12-14T13:38:58;9.30;99.90
24252;DHT22;12380;51.118;4.176;2023-12-14T13:41:24;9.20;99.90
24252;DHT22;12380;51.118;4.176;2023-12-14T13:43:50;9.20;99.90
24252;DHT22;12380;51.118;4.176;2023-12-14T13:46:17;9.20;99.90
24252;DHT22;12380;51.118;4.176;2023-12-14T13:48:45;9.20;99.90
24252;DHT22;12380;51.118;4.176;2023-12-14T13:51:10;9.10;99.90
24252;DHT22;12380;51.118;4.176;2023-12-14T13:53:36;9.10;99.90
24252;DHT22;12380;51.118;4.176;2023-12-14T13:56:02;9.20;99.90
24252;DHT22;12380;51.118;4.176;2023-12-14T13:58:28;9.10;99.90
24252;DHT22;12380;51.118;4.176;2023-12-14T14:00:54;9.10;99.90
24252;DHT22;12380;51.118;4.176;2023-12-14T14:03:22;9.00;99.90
24252;DHT22;12380;51.118;4.176;2023-12-14T14:05:48;9.10;99.90
24252;DHT22;12380;51.118;4.176;2023-12-14T14:08:13;9.10;99.90
24252;DHT22;12380;51.118;4.176;2023-12-14T14:10:39;9.20;99.90
24252;DHT22;12380;51.118;4.176;2023-12-14T14:13:05;9.10;99.90
24252;DHT22;12380;51.118;4.176;2023-12-14T14:15:30;9.00;99.90
24252;DHT22;12380;51.118;4.176;2023-12-14T14:17:56;8.90;99.90
24252;DHT22;12380;51.118;4.176;2023-12-14T14:20:22;8.90;99.90
24252;DHT22;12380;51.118;4.176;2023-12-14T14:22:49;8.90;99.90
24252;DHT22;12380;51.118;4.176;2023-12-14T14:25:14;9.00;99.90
24252;DHT22;12380;51.118;4.176;2023-12-14T14:27:43;8.90;99.90
24252;DHT22;12380;51.118;4.176;2023-12-14T14:30:12;8.80;99.90
24252;DHT22;12380;51.118;4.176;2023-12-14T14:32:40;8.90;99.90
24252;DHT22;12380;51.118;4.176;2023-12-14T14:35:06;8.90;99.90
24252;DHT22;12380;51.118;4.176;2023-12-14T14:37:32;8.80;99.90
24252;DHT22;12380;51.118;4.176;2023-12-14T14:39:59;8.90;99.90
24252;DHT22;12380;51.118;4.176;2023-12-14T14:42:25;8.90;99.90
24252;DHT22;12380;51.118;4.176;2023-12-14T14:44:50;8.80;99.90
24252;DHT22;12380;51.118;4.176;2023-12-14T14:47:16;8.60;99.90
24252;DHT22;12380;51.118;4.176;2023-12-14T14:49:43;8.50;99.90
24252;DHT22;12380;51.118;4.176;2023-12-14T14:52:11;8.70;99.90
24252;DHT22;12380;51.118;4.176;2023-12-14T14:54:39;8.50;99.90
24252;DHT22;12380;51.118;4.176;2023-12-14T14:57:06;8.60;99.90
24252;DHT22;12380;51.118;4.176;2023-12-14T14:59:31;8.80;99.90
24252;DHT22;12380;51.118;4.176;2023-12-14T15:01:57;8.70;99.90
24252;DHT22;12380;51.118;4.176;2023-12-14T15:04:25;8.50;99.90
24252;DHT22;12380;51.118;4.176;2023-12-14T15:06:51;8.50;99.90
24252;DHT22;12380;51.118;4.176;2023-12-14T15:09:19;8.70;99.90
24252;DHT22;12380;51.118;4.176;2023-12-14T15:11:45;8.60;99.90
24252;DHT22;12380;51.118;4.176;2023-12-14T15:14:13;8.50;99.90
24252;DHT22;12380;51.118;4.176;2023-12-14T15:16:41;8.40;99.90
24252;DHT22;12380;51.118;4.176;2023-12-14T15:19:07;8.40;99.90
24252;DHT22;12380;51.118;4.176;2023-12-14T15:21:33;8.20;99.90
24252;DHT22;12380;51.118;4.176;2023-12-14T15:23:59;8.10;99.90
24252;DHT22;12380;51.118;4.176;2023-12-14T15:26:24;8.00;99.90
24252;DHT22;12380;51.118;4.176;2023-12-14T15:28:55;7.90;99.90
24252;DHT22;12380;51.118;4.176;2023-12-14T15:31:21;7.90;99.90
24252;DHT22;12380;51.118;4.176;2023-12-14T15:33:47;7.90;99.90
24252;DHT22;12380;51.118;4.176;2023-12-14T15:36:12;7.80;99.90
24252;DHT22;12380;51.118;4.176;2023-12-14T15:38:41;8.00;99.90
24252;DHT22;12380;51.118;4.176;2023-12-14T15:41:11;7.90;99.90
24252;DHT22;12380;51.118;4.176;2023-12-14T15:43:37;7.80;99.90
24252;DHT22;12380;51.118;4.176;2023-12-14T15:46:03;7.80;99.90
24252;DHT22;12380;51.118;4.176;2023-12-14T15:48:29;7.80;99.90
24252;DHT22;12380;51.118;4.176;2023-12-14T15:50:54;7.70;99.90